createdAt,value
2022-10-04T00:01:53.850Z,71.80
2022-10-04T00:04:26.222Z,71.40
2022-10-04T00:07:01.685Z,71.60
2022-10-04T00:09:41.005Z,70.80
2022-10-04T00:12:24.240Z,71.50
2022-10-04T00:14:53.501Z,71.40
2022-10-04T00:17:27.226Z,71.00
2022-10-04T00:19:55.747Z,71.70
2022-10-04T00:22:30.071Z,70.80
2022-10-04T00:25:17.717Z,71.90
2022-10-04T00:28:21.426Z,73.10
2022-10-04T00:31:26.738Z,72.00
2022-10-04T00:34:08.432Z,71.90
2022-10-04T00:36:53.214Z,72.50
2022-10-04T00:39:33.551Z,71.50
2022-10-04T00:42:31.078Z,71.80
2022-10-04T00:45:11.361Z,71.70
2022-10-04T00:47:47.060Z,71.80
2022-10-04T00:50:35.194Z,72.40
2022-10-04T00:53:03.966Z,71.90
2022-10-04T00:55:48.738Z,71.30
2022-10-04T00:58:29.038Z,71.80
2022-10-04T01:00:57.537Z,71.50
2022-10-04T01:03:35.703Z,71.30
2022-10-04T01:06:06.259Z,72.10
2022-10-04T01:08:38.291Z,71.60
2022-10-04T01:11:13.346Z,71.50
2022-10-04T01:13:42.742Z,71.20
2022-10-04T01:16:19.861Z,70.20
2022-10-04T01:18:47.495Z,71.60
2022-10-04T01:21:23.464Z,70.20
2022-10-04T01:24:15.862Z,71.90
2022-10-04T01:26:45.252Z,71.40
2022-10-04T01:29:18.177Z,71.10
2022-10-04T01:31:53.289Z,71.40
2022-10-04T01:34:22.464Z,72.50
2022-10-04T01:36:52.438Z,71.30
2022-10-04T01:39:21.366Z,70.90
2022-10-04T01:41:48.052Z,71.20
2022-10-04T01:44:46.409Z,70.30
2022-10-04T01:47:37.380Z,73.20
2022-10-04T01:50:15.996Z,72.00
2022-10-04T01:52:47.136Z,71.60
2022-10-04T01:55:18.596Z,71.50
2022-10-04T01:57:57.913Z,71.70
2022-10-04T02:00:25.002Z,71.40
2022-10-04T02:03:03.461Z,70.60
2022-10-04T02:05:37.140Z,72.50
2022-10-04T02:08:09.558Z,71.40
2022-10-04T02:10:43.463Z,71.70
2022-10-04T02:13:15.317Z,71.20
2022-10-04T02:15:43.086Z,71.70
2022-10-04T02:18:15.109Z,70.90
2022-10-04T02:20:42.893Z,72.10
2022-10-04T02:23:10.975Z,71.50
2022-10-04T02:25:38.760Z,71.40
2022-10-04T02:28:10.843Z,71.40
2022-10-04T02:30:39.463Z,72.30
2022-10-04T02:33:06.608Z,71.80
2022-10-04T02:35:37.242Z,70.90
2022-10-04T02:38:32.036Z,72.00
2022-10-04T02:41:17.392Z,72.40
2022-10-04T02:43:58.289Z,72.10
2022-10-04T02:46:33.113Z,72.00
2022-10-04T02:49:04.694Z,72.30
2022-10-04T02:51:40.999Z,72.00
2022-10-04T02:54:14.860Z,72.50
2022-10-04T02:56:42.466Z,72.60
2022-10-04T02:59:16.550Z,71.60
2022-10-04T03:01:53.516Z,72.70
2022-10-04T03:04:25.379Z,72.20
2022-10-04T03:06:53.186Z,72.30
2022-10-04T03:09:28.840Z,71.70
2022-10-04T03:11:57.240Z,71.90
2022-10-04T03:14:26.554Z,71.20
2022-10-04T03:16:56.907Z,72.00
2022-10-04T03:19:26.800Z,72.70
2022-10-04T03:21:57.726Z,72.20
2022-10-04T03:24:29.733Z,72.60
2022-10-04T03:26:59.045Z,72.70
2022-10-04T03:29:30.185Z,72.10
2022-10-04T03:31:58.208Z,72.90
2022-10-04T03:34:39.956Z,72.30
2022-10-04T03:37:17.160Z,72.40
2022-10-04T03:39:47.281Z,72.00
2022-10-04T03:42:27.328Z,72.90
2022-10-04T03:45:02.564Z,72.10
2022-10-04T03:47:38.857Z,72.00
2022-10-04T03:50:24.636Z,73.10
2022-10-04T03:52:57.733Z,72.30
2022-10-04T03:55:31.810Z,73.00
2022-10-04T03:57:59.711Z,72.70
2022-10-04T04:00:26.602Z,72.10
2022-10-04T04:03:03.727Z,71.50
2022-10-04T04:05:45.523Z,72.70
2022-10-04T04:08:26.660Z,70.80
2022-10-04T04:10:56.362Z,73.20
2022-10-04T04:13:58.345Z,72.60
2022-10-04T04:16:26.345Z,73.20
2022-10-04T04:18:55.373Z,71.80
2022-10-04T04:21:24.260Z,72.40
2022-10-04T04:24:08.518Z,71.90
2022-10-04T04:26:45.848Z,72.70
2022-10-04T04:29:20.117Z,72.90
2022-10-04T04:31:51.074Z,73.00
2022-10-04T04:34:31.750Z,73.20
2022-10-04T04:37:00.710Z,73.00
2022-10-04T04:39:40.946Z,72.60
2022-10-04T04:42:10.642Z,72.50
2022-10-04T04:45:14.221Z,73.00
2022-10-04T04:47:47.611Z,73.10
2022-10-04T04:50:19.854Z,73.10
2022-10-04T04:53:02.957Z,72.20
2022-10-04T04:55:56.456Z,73.90
2022-10-04T04:58:44.164Z,73.00
2022-10-04T05:01:43.629Z,72.20
2022-10-04T05:04:12.386Z,73.00
2022-10-04T05:06:41.949Z,71.20
2022-10-04T05:09:31.843Z,72.10
2022-10-04T05:12:23.076Z,73.70
2022-10-04T05:14:53.204Z,73.00
2022-10-04T05:17:22.952Z,72.60
2022-10-04T05:19:50.438Z,71.10
2022-10-04T05:22:21.417Z,71.40
2022-10-04T05:24:52.869Z,72.60
2022-10-04T05:27:40.169Z,72.70
2022-10-04T05:30:25.493Z,73.40
2022-10-04T05:33:00.412Z,72.90
2022-10-04T05:35:28.621Z,73.30
2022-10-04T05:38:09.030Z,72.10
2022-10-04T05:41:23.952Z,73.50
2022-10-04T05:43:51.764Z,73.40
2022-10-04T05:46:31.094Z,72.20
2022-10-04T05:49:18.138Z,73.00
2022-10-04T05:52:00.878Z,73.40
2022-10-04T05:54:35.609Z,72.70
2022-10-04T05:57:33.025Z,72.40
2022-10-04T06:00:16.414Z,72.90
2022-10-04T06:02:56.389Z,70.80
2022-10-04T06:05:48.665Z,73.00
2022-10-04T06:08:40.682Z,72.60
2022-10-04T06:11:22.153Z,73.60
2022-10-04T06:14:19.593Z,72.60
2022-10-04T06:17:20.813Z,72.90
2022-10-04T06:20:02.966Z,73.00
2022-10-04T06:22:31.481Z,72.90
2022-10-04T06:25:06.370Z,72.30
2022-10-04T06:27:42.005Z,73.20
2022-10-04T06:30:17.110Z,72.60
2022-10-04T06:33:13.068Z,73.40
2022-10-04T06:35:45.550Z,73.50
2022-10-04T06:38:41.189Z,73.50
2022-10-04T06:41:42.861Z,72.50
2022-10-04T06:44:28.686Z,72.80
2022-10-04T06:47:10.022Z,73.00
2022-10-04T06:50:01.297Z,73.00
2022-10-04T06:52:40.860Z,72.80
2022-10-04T06:55:36.314Z,72.90
2022-10-04T06:58:27.798Z,72.80
2022-10-04T07:01:01.187Z,72.50
2022-10-04T07:03:37.225Z,72.50
2022-10-04T07:06:07.027Z,72.60
2022-10-04T07:08:40.616Z,71.50
2022-10-04T07:11:22.288Z,69.80
2022-10-04T07:14:03.993Z,73.10
2022-10-04T07:16:49.061Z,71.80
2022-10-04T07:19:42.079Z,72.70
2022-10-04T07:22:10.103Z,72.00
2022-10-04T07:25:15.093Z,70.20
2022-10-04T07:28:29.076Z,71.80
2022-10-04T07:31:06.315Z,71.80
2022-10-04T07:33:42.339Z,71.50
2022-10-04T07:36:12.647Z,71.00
2022-10-04T07:38:54.785Z,71.00
2022-10-04T07:41:47.931Z,72.20
2022-10-04T07:44:44.961Z,70.90
2022-10-04T07:47:24.298Z,71.00
2022-10-04T07:49:53.566Z,71.20
2022-10-04T07:52:53.724Z,68.90
2022-10-04T07:55:32.948Z,70.30
2022-10-04T07:58:21.018Z,69.60
2022-10-04T08:01:01.030Z,69.70
2022-10-04T08:03:45.096Z,68.80
2022-10-04T08:06:35.879Z,69.50
2022-10-04T08:09:14.494Z,68.90
2022-10-04T08:11:50.246Z,69.20
2022-10-04T08:14:25.590Z,69.40
2022-10-04T08:17:31.235Z,68.50
2022-10-04T08:20:17.121Z,69.40
2022-10-04T08:23:28.501Z,69.40
2022-10-04T08:26:15.840Z,69.30
2022-10-04T08:29:29.230Z,68.70
2022-10-04T08:32:23.161Z,69.40
2022-10-04T08:35:19.898Z,68.00
2022-10-04T08:38:05.365Z,68.00
2022-10-04T08:40:56.653Z,68.70
2022-10-04T08:43:41.594Z,67.60
2022-10-04T08:46:14.108Z,65.60
2022-10-04T08:49:11.864Z,67.50
2022-10-04T08:52:19.111Z,67.30
2022-10-04T08:55:11.782Z,68.20
2022-10-04T08:58:15.134Z,66.70
2022-10-04T09:01:18.849Z,66.80
2022-10-04T09:04:33.672Z,66.60
2022-10-04T09:07:34.578Z,66.20
2022-10-04T09:10:38.790Z,66.10
2022-10-04T09:13:12.150Z,65.60
2022-10-04T09:15:53.110Z,65.70
2022-10-04T09:19:08.811Z,65.80
2022-10-04T09:22:15.054Z,65.20
2022-10-04T09:25:05.643Z,64.80
2022-10-04T09:27:56.629Z,64.90
2022-10-04T09:30:34.994Z,64.30
2022-10-04T09:33:19.518Z,63.30
2022-10-04T09:35:51.836Z,62.60
2022-10-04T09:38:35.286Z,63.50
2022-10-04T09:41:23.857Z,62.30
2022-10-04T09:44:09.214Z,63.60
2022-10-04T09:47:08.343Z,63.60
2022-10-04T09:49:55.804Z,63.20
2022-10-04T09:52:55.861Z,63.30
2022-10-04T09:55:37.812Z,63.20
2022-10-04T09:58:46.199Z,61.60
2022-10-04T10:01:23.083Z,62.70
2022-10-04T10:04:34.037Z,62.50
2022-10-04T10:07:21.714Z,61.70
2022-10-04T10:10:33.797Z,62.30
2022-10-04T10:13:37.462Z,62.60
2022-10-04T10:16:20.186Z,62.30
2022-10-04T10:19:15.157Z,61.80
2022-10-04T10:21:47.860Z,62.10
2022-10-04T10:24:46.641Z,62.10
2022-10-04T10:27:43.643Z,61.30
2022-10-04T10:30:20.541Z,60.90
2022-10-04T10:32:58.913Z,61.00
2022-10-04T10:35:46.937Z,61.60
2022-10-04T10:38:49.489Z,61.40
2022-10-04T10:41:55.883Z,61.50
2022-10-04T10:44:41.464Z,61.20
2022-10-04T10:47:16.933Z,59.80
2022-10-04T10:50:02.925Z,60.20
2022-10-04T10:52:54.537Z,60.20
2022-10-04T10:55:33.257Z,60.00
2022-10-04T10:58:22.579Z,58.20
2022-10-04T11:01:23.056Z,58.30
2022-10-04T11:04:17.751Z,59.10
2022-10-04T11:07:22.871Z,58.90
2022-10-04T11:10:08.141Z,58.80
2022-10-04T11:13:01.097Z,57.30
2022-10-04T11:15:33.602Z,57.90
2022-10-04T11:18:06.148Z,57.60
2022-10-04T11:20:32.776Z,56.30
2022-10-04T11:23:37.106Z,55.80
2022-10-04T11:26:26.392Z,56.30
2022-10-04T11:29:20.263Z,55.00
2022-10-04T11:32:02.183Z,55.30
2022-10-04T11:34:39.810Z,55.50
2022-10-04T11:37:23.130Z,54.20
2022-10-04T11:40:04.220Z,53.80
2022-10-04T11:43:05.058Z,54.30
2022-10-04T11:46:01.690Z,54.30
2022-10-04T11:48:35.118Z,53.60
2022-10-04T11:51:10.956Z,53.40
2022-10-04T11:54:07.464Z,52.50
2022-10-04T11:56:34.094Z,52.70
2022-10-04T11:59:08.501Z,52.30
2022-10-04T12:02:10.289Z,52.30
2022-10-04T12:04:53.741Z,53.20
2022-10-04T12:07:39.640Z,53.30
2022-10-04T12:10:35.449Z,53.50
2022-10-04T12:13:28.226Z,52.80
2022-10-04T12:16:13.012Z,52.60
2022-10-04T12:19:00.865Z,53.00
2022-10-04T12:21:50.699Z,52.80
2022-10-04T12:24:27.021Z,53.40
2022-10-04T12:26:56.723Z,53.00
2022-10-04T12:29:27.796Z,53.00
2022-10-04T12:32:08.952Z,52.60
2022-10-04T12:34:58.707Z,52.70
2022-10-04T12:37:40.481Z,52.60
2022-10-04T12:40:09.965Z,52.40
2022-10-04T12:43:06.882Z,51.90
2022-10-04T12:46:08.678Z,51.50
2022-10-04T12:49:04.083Z,51.30
2022-10-04T12:51:54.109Z,50.30
2022-10-04T12:54:33.585Z,49.90
2022-10-04T12:57:35.110Z,49.70
2022-10-04T13:00:25.138Z,49.50
2022-10-04T13:03:11.106Z,49.80
2022-10-04T13:05:53.014Z,48.90
2022-10-04T13:08:48.598Z,48.60
2022-10-04T13:11:47.038Z,48.30
2022-10-04T13:14:29.177Z,47.60
2022-10-04T13:17:34.446Z,47.10
2022-10-04T13:20:31.117Z,46.50
2022-10-04T13:23:15.775Z,46.40
2022-10-04T13:25:48.203Z,45.70
2022-10-04T13:28:37.839Z,45.10
2022-10-04T13:31:24.404Z,45.40
2022-10-04T13:34:14.226Z,46.40
2022-10-04T13:36:43.901Z,44.80
2022-10-04T13:39:19.366Z,44.40
2022-10-04T13:42:14.021Z,44.70
2022-10-04T13:45:04.990Z,44.50
2022-10-04T13:48:09.269Z,44.50
2022-10-04T13:50:56.743Z,44.30
2022-10-04T13:54:09.943Z,44.40
2022-10-04T13:56:51.963Z,45.00
2022-10-04T14:00:00.673Z,46.60
2022-10-04T14:02:27.354Z,46.20
2022-10-04T14:05:27.620Z,46.10
2022-10-04T14:08:38.492Z,46.50
2022-10-04T14:11:34.786Z,47.20
2022-10-04T14:14:10.818Z,47.60
2022-10-04T14:17:14.992Z,47.80
2022-10-04T14:19:59.181Z,48.10
2022-10-04T14:23:03.322Z,48.50
2022-10-04T14:25:53.629Z,48.30
2022-10-04T14:28:47.105Z,48.40
2022-10-04T14:31:37.279Z,48.60
2022-10-04T14:34:29.467Z,48.80
2022-10-04T14:37:38.456Z,49.50
2022-10-04T14:40:11.042Z,49.50
2022-10-04T14:43:00.321Z,49.70
2022-10-04T14:45:38.462Z,50.10
2022-10-04T14:48:29.476Z,49.80
2022-10-04T14:51:18.038Z,49.60
2022-10-04T14:54:01.943Z,49.90
2022-10-04T14:57:00.642Z,49.50
2022-10-04T14:59:49.085Z,49.40
2022-10-04T15:02:31.750Z,49.30
2022-10-04T15:05:31.168Z,49.70
2022-10-04T15:08:22.014Z,49.50
2022-10-04T15:11:06.171Z,49.90
2022-10-04T15:13:55.612Z,49.90
2022-10-04T15:16:50.502Z,50.20
2022-10-04T15:19:28.302Z,50.40
2022-10-04T15:21:55.000Z,50.50
2022-10-04T15:24:28.503Z,50.70
2022-10-04T15:27:27.161Z,50.80
2022-10-04T15:29:57.881Z,51.10
2022-10-04T15:32:35.880Z,51.10
2022-10-04T15:35:15.830Z,51.70
2022-10-04T15:38:15.622Z,51.80
2022-10-04T15:41:06.075Z,52.50
2022-10-04T15:43:43.786Z,53.10
2022-10-04T15:46:26.594Z,53.60
2022-10-04T15:49:26.726Z,53.20
2022-10-04T15:52:27.138Z,53.40
2022-10-04T15:55:21.407Z,53.70
2022-10-04T15:57:48.133Z,53.90
2022-10-04T16:00:20.753Z,54.00
2022-10-04T16:03:02.176Z,54.00
2022-10-04T16:05:39.382Z,54.30
2022-10-04T16:08:09.230Z,54.40
2022-10-04T16:11:13.052Z,54.40
2022-10-04T16:14:19.905Z,54.70
2022-10-04T16:17:02.384Z,54.70
2022-10-04T16:19:52.077Z,55.80
2022-10-04T16:22:30.570Z,55.00
2022-10-04T16:25:26.163Z,54.90
2022-10-04T16:28:05.620Z,55.40
2022-10-04T16:31:07.558Z,55.90
2022-10-04T16:33:43.073Z,55.60
2022-10-04T16:36:13.333Z,56.10
2022-10-04T16:39:11.476Z,56.00
2022-10-04T16:41:45.759Z,57.60
2022-10-04T16:44:28.926Z,56.90
2022-10-04T16:47:01.198Z,57.60
2022-10-04T16:49:41.226Z,57.80
2022-10-04T16:52:38.764Z,58.00
2022-10-04T16:55:24.987Z,58.40
2022-10-04T16:58:30.613Z,58.40
2022-10-04T17:01:22.526Z,58.70
2022-10-04T17:04:04.425Z,58.90
2022-10-04T17:06:34.001Z,59.10
2022-10-04T17:09:18.730Z,58.50
2022-10-04T17:12:14.554Z,59.00
2022-10-04T17:14:50.132Z,60.10
2022-10-04T17:17:22.110Z,58.90
2022-10-04T17:20:01.635Z,58.70
2022-10-04T17:22:55.611Z,59.00
2022-10-04T17:25:45.300Z,59.30
2022-10-04T17:28:47.551Z,59.30
2022-10-04T17:31:52.087Z,59.80
2022-10-04T17:34:31.140Z,60.60
2022-10-04T17:37:11.699Z,59.20
2022-10-04T17:39:44.635Z,60.00
2022-10-04T17:42:47.038Z,59.50
2022-10-04T17:45:41.050Z,60.00
2022-10-04T17:48:43.695Z,60.20
2022-10-04T17:51:29.180Z,60.20
2022-10-04T17:54:22.135Z,59.90
2022-10-04T17:56:53.578Z,60.40
2022-10-04T17:59:30.722Z,60.30
2022-10-04T18:02:11.937Z,60.30
2022-10-04T18:04:49.108Z,60.60
2022-10-04T18:07:20.591Z,60.70
2022-10-04T18:09:59.804Z,60.20
2022-10-04T18:12:43.946Z,60.20
2022-10-04T18:15:32.880Z,60.30
2022-10-04T18:18:16.056Z,60.40
2022-10-04T18:20:57.718Z,61.20
2022-10-04T18:23:27.289Z,61.00
2022-10-04T18:26:01.698Z,60.80
2022-10-04T18:28:28.616Z,60.90
2022-10-04T18:31:05.001Z,60.70
2022-10-04T18:33:49.792Z,60.80
2022-10-04T18:36:30.997Z,61.40
2022-10-04T18:39:24.494Z,61.30
2022-10-04T18:42:15.175Z,61.80
2022-10-04T18:44:49.123Z,61.20
2022-10-04T18:47:38.067Z,61.80
2022-10-04T18:50:19.846Z,61.10
2022-10-04T18:53:08.193Z,61.60
2022-10-04T18:56:04.490Z,61.40
2022-10-04T18:59:13.705Z,61.70
2022-10-04T19:02:03.499Z,61.70
2022-10-04T19:05:10.426Z,61.50
2022-10-04T19:07:42.608Z,61.80
2022-10-04T19:10:21.283Z,61.50
2022-10-04T19:13:27.990Z,61.30
2022-10-04T19:16:09.742Z,62.80
2022-10-04T19:19:16.384Z,61.90
2022-10-04T19:21:43.031Z,62.00
2022-10-04T19:24:51.015Z,61.50
2022-10-04T19:27:21.634Z,62.20
2022-10-04T19:30:16.791Z,62.20
2022-10-04T19:33:06.834Z,62.30
2022-10-04T19:36:07.322Z,62.10
2022-10-04T19:38:55.784Z,62.20
2022-10-04T19:42:00.911Z,62.20
2022-10-04T19:44:27.565Z,62.30
2022-10-04T19:47:12.082Z,61.70
2022-10-04T19:50:05.035Z,62.20
2022-10-04T19:52:46.611Z,62.40
2022-10-04T19:55:42.675Z,62.40
2022-10-04T19:58:28.222Z,62.70
2022-10-04T20:00:55.217Z,61.60
2022-10-04T20:03:21.986Z,61.60
2022-10-04T20:05:54.185Z,61.70
2022-10-04T20:09:02.325Z,62.00
2022-10-04T20:11:41.952Z,62.20
2022-10-04T20:14:17.730Z,62.20
2022-10-04T20:16:48.321Z,62.70
2022-10-04T20:19:19.366Z,62.10
2022-10-04T20:21:46.619Z,62.00
2022-10-04T20:24:35.654Z,61.80
2022-10-04T20:27:24.426Z,62.00
2022-10-04T20:29:53.863Z,62.00
2022-10-04T20:32:26.597Z,61.50
2022-10-04T20:34:54.909Z,62.20
2022-10-04T20:37:21.782Z,62.10
2022-10-04T20:39:49.670Z,61.50
2022-10-04T20:42:38.749Z,61.40
2022-10-04T20:45:11.903Z,61.80
2022-10-04T20:47:45.859Z,61.90
2022-10-04T20:50:25.333Z,61.60
2022-10-04T20:52:55.660Z,62.20
2022-10-04T20:55:27.322Z,61.80
2022-10-04T20:57:56.147Z,61.50
2022-10-04T21:00:25.601Z,61.70
2022-10-04T21:03:16.402Z,61.80
2022-10-04T21:05:44.484Z,62.10
2022-10-04T21:08:27.128Z,62.00
2022-10-04T21:11:20.257Z,62.30
2022-10-04T21:13:48.964Z,62.00
2022-10-04T21:16:34.289Z,61.80
2022-10-04T21:19:42.980Z,62.50
2022-10-04T21:22:31.276Z,62.20
2022-10-04T21:25:00.756Z,61.90
2022-10-04T21:27:35.797Z,62.00
2022-10-04T21:30:24.604Z,62.00
2022-10-04T21:32:51.431Z,62.00
2022-10-04T21:35:18.097Z,62.00
2022-10-04T21:37:44.777Z,61.90
2022-10-04T21:40:13.364Z,61.90
2022-10-04T21:42:40.036Z,63.20
2022-10-04T21:45:07.431Z,62.10
2022-10-04T21:47:34.098Z,62.10
2022-10-04T21:50:00.762Z,62.00
2022-10-04T21:52:27.429Z,62.10
2022-10-04T21:54:54.125Z,62.00
2022-10-04T21:57:23.816Z,62.10
2022-10-04T21:59:50.481Z,62.20
2022-10-04T22:02:17.330Z,62.70
2022-10-04T22:04:44.000Z,62.20
2022-10-04T22:07:10.689Z,62.20
2022-10-04T22:09:37.501Z,62.20
2022-10-04T22:12:04.338Z,62.20
2022-10-04T22:14:30.992Z,62.40
2022-10-04T22:16:57.682Z,62.30
2022-10-04T22:19:24.352Z,62.70
2022-10-04T22:21:51.122Z,62.30
2022-10-04T22:24:19.572Z,62.40
2022-10-04T22:26:46.656Z,62.60
2022-10-04T22:29:16.045Z,62.50
2022-10-04T22:31:46.535Z,62.60
2022-10-04T22:34:19.174Z,62.80
2022-10-04T22:36:47.476Z,63.50
2022-10-04T22:39:19.859Z,62.60
2022-10-04T22:41:48.814Z,62.90
2022-10-04T22:44:19.865Z,62.80
2022-10-04T22:46:50.849Z,63.60
2022-10-04T22:49:21.387Z,63.00
2022-10-04T22:51:50.256Z,63.20
2022-10-04T22:54:19.578Z,63.00
2022-10-04T22:56:46.759Z,63.20
2022-10-04T22:59:15.574Z,62.90
2022-10-04T23:01:46.444Z,63.10
2022-10-04T23:04:15.303Z,63.50
2022-10-04T23:06:42.060Z,63.90
2022-10-04T23:09:08.725Z,63.00
2022-10-04T23:11:35.691Z,62.90
2022-10-04T23:14:02.420Z,63.00
2022-10-04T23:16:29.304Z,63.00
2022-10-04T23:19:06.750Z,62.90
2022-10-04T23:21:35.009Z,63.70
2022-10-04T23:24:25.389Z,63.20
2022-10-04T23:26:56.486Z,63.50
2022-10-04T23:29:30.129Z,64.00
2022-10-04T23:31:57.297Z,63.70
2022-10-04T23:34:33.225Z,63.30
2022-10-04T23:37:00.213Z,63.70
2022-10-04T23:39:30.605Z,63.30
2022-10-04T23:41:57.318Z,64.10
2022-10-04T23:44:37.066Z,63.30
2022-10-04T23:47:13.325Z,63.60
2022-10-04T23:49:40.457Z,64.10
2022-10-04T23:52:13.546Z,63.40
2022-10-04T23:54:40.418Z,64.00
2022-10-04T23:57:10.724Z,63.40
2022-10-04T23:59:39.489Z,64.00
